Rio Vista Municipal (O88)
Rio Vista, CA
Field Elevation: 23
Lat: 38°11.60N  Long: 121°42.22W
CTAF/Unicom Freq: 122.7250
   
     For Weather-by-Phone, call (707) 374-5396
Weather Advisories
2015-03-31   12:33 Z
Altimeter 30.03" Hg
Wind 220° @ 14 KT
Gusts 21 KT
Visibility 10 SM
Ceiling CLR
Temperature 12° C (54° F)
Dewpoint 7° C (45° F)
Relative Humidity 72%
Density Altitude --
Condensation Altitude 2,500 feet
Wind and Runways
Indicated Runway = 25
Headwind = 12 kt
Crosswind = 7 kt
History
 
 
 
More Info
All DigiWx sites map
NOAA Forecast
 
Airport IQ 5010
(DUC) Stack Farm
(CA37) Dominican
 
about DigiWx
 
FAA Disclaimer: The data displayed is for advisory purposes only and is not to be used for flight planning or operations. For official data, please call (707) 374-5396 to hear the current automated AWOS voice message.
  METAR O88 311233Z AUTO 22014G21KT VIS 10 SM CLR 12/07 A3003